Impacts METAR Board
IDs:

KIAD - Washington/Dulles In, VA, US

Updated at: 1800 UTC 22 Sep 2018
Potential Impact None Slight Moderate High
Time 22/06Z 22/07Z 22/08Z 22/09Z 22/10Z 22/11Z 22/12Z 22/13Z 22/14Z 22/15Z 22/16Z 22/17Z 22/18Z
Temp73 72 72 73 73 73 73 72 73 69 70 75 71
Dewpt71 71 71 72 71 70 68 65 63 60 59 61 59
Altim30.02 30.01 30.00 30.04 30.07 30.08 30.10 30.11 30.14 30.15 30.17 30.17 30.16
VIS10 10 9 9 10 10 10 10 10 10 10 10 10
CIG-- -- -- 6 75 95 90 90 90 85 110 100 100
CoverFEWSCTSCTOVCOVCOVCBKNBKNBKNBKNBKNBKNBKN
FltCatVFRVFRVFRIFRVFRVFRVFRVFRVFRVFRVFRVFRVFR
WX---------RA-RA-------RA------
WDir19020020035034010340340330330330350340
WSpd9 10 9 5 5 6 11 12 10 9 10 10 7
WGst-- -- -- -- -- -- -- -- -- -- -- -- --
Raw hourly METARs
KIAD 220552Z 19009KT 10SM FEW010 FEW110 23/22 A3002 RMK AO2 SLP164 T02280217 10233 20222 58010
KIAD 220652Z 20010KT 10SM FEW010 SCT100 22/22 A3001 RMK AO2 SLP160 T02220217
KIAD 220752Z 20009KT 9SM FEW007 SCT100 22/22 A3000 RMK AO2 SLP157 T02220217
KIAD 220852Z 35005KT 9SM BKN006 OVC050 23/22 A3004 RMK AO2 CIG 005V012 SLP170 T02280222 53010
KIAD 220952Z 34005KT 10SM -RA SCT039 BKN075 OVC085 23/22 A3007 RMK AO2 RAB0853E06B21 SLP178 P0002 T02280217
KIAD 221052Z 01006KT 10SM -RA FEW060 OVC095 23/21 A3008 RMK AO2 SLP182 P0000 T02280211
KIAD 221152Z 34011KT 10SM FEW065 BKN090 BKN200 23/20 A3010 RMK AO2 RAE05 SLP190 P0000 60002 70002 T02280200 10228 20222 51020
KIAD 221252Z 34012KT 10SM FEW030 BKN090 BKN170 22/18 A3011 RMK AO2 SLP194 T02220183
KIAD 221352Z 33010KT 10SM FEW035 BKN090 BKN180 23/17 A3014 RMK AO2 SLP202 T02280172
KIAD 221452Z 33009KT 10SM -RA BKN085 BKN120 BKN160 21/16 A3015 RMK AO2 RAB46 SLP206 P0000 60000 T02060156 53016
KIAD 221552Z 33010KT 10SM BKN110 BKN220 21/15 A3017 RMK AO2 RAE13 SLP213 P0000 T02110150
KIAD 221652Z 35010KT 10SM FEW055 BKN100 BKN200 24/16 A3017 RMK AO2 SLP212 T02390161
KIAD 221752Z 34007KT 10SM FEW045 BKN100 BKN220 22/15 A3016 RMK AO2 SLP211 60000 T02170150 10239 20206 50004



Page loaded:  18:56 UTC  |   11:56 AM Pacific  |   12:56 PM Mountain  |   01:56 PM Central  |   02:56 PM Eastern

 

ADVISORIES

FORECASTS

FORECASTS

OBSERVATIONS

USER TOOLS

ABOUT US